sensor_id;sensor_type;location;lat;lon;timestamp;temperature;humidity
13596;DHT22;6868;52.544;13.416;2023-03-01T00:00:59;0.50;99.90
13596;DHT22;6868;52.544;13.416;2023-03-01T00:03:27;0.50;99.90
13596;DHT22;6868;52.544;13.416;2023-03-01T00:05:54;0.60;99.90
13596;DHT22;6868;52.544;13.416;2023-03-01T00:08:21;0.50;99.90
13596;DHT22;6868;52.544;13.416;2023-03-01T00:10:49;0.50;99.90
13596;DHT22;6868;52.544;13.416;2023-03-01T00:13:16;0.90;99.90
13596;DHT22;6868;52.544;13.416;2023-03-01T00:15:43;0.40;99.90
13596;DHT22;6868;52.544;13.416;2023-03-01T00:18:10;0.40;99.90
13596;DHT22;6868;52.544;13.416;2023-03-01T00:20:37;0.40;99.90
13596;DHT22;6868;52.544;13.416;2023-03-01T00:23:03;0.50;99.90
13596;DHT22;6868;52.544;13.416;2023-03-01T00:25:30;0.40;99.90
13596;DHT22;6868;52.544;13.416;2023-03-01T00:27:58;0.40;99.90
13596;DHT22;6868;52.544;13.416;2023-03-01T00:30:25;0.40;99.90
13596;DHT22;6868;52.544;13.416;2023-03-01T00:32:52;0.40;99.90
13596;DHT22;6868;52.544;13.416;2023-03-01T00:35:19;0.40;99.90
13596;DHT22;6868;52.544;13.416;2023-03-01T00:37:46;0.30;99.90
13596;DHT22;6868;52.544;13.416;2023-03-01T00:40:13;0.30;99.90
13596;DHT22;6868;52.544;13.416;2023-03-01T00:42:41;0.40;99.90
13596;DHT22;6868;52.544;13.416;2023-03-01T00:45:10;0.50;99.90
13596;DHT22;6868;52.544;13.416;2023-03-01T07:19:34;2.50;99.90
13596;DHT22;6868;52.544;13.416;2023-03-01T07:22:02;4.00;99.90
13596;DHT22;6868;52.544;13.416;2023-03-01T11:50:01;7.40;47.10
13596;DHT22;6868;52.544;13.416;2023-03-01T11:52:32;7.40;47.70
13596;DHT22;6868;52.544;13.416;2023-03-01T11:55:07;7.50;49.60
13596;DHT22;6868;52.544;13.416;2023-03-01T11:57:43;7.70;48.20
13596;DHT22;6868;52.544;13.416;2023-03-01T12:00:18;7.70;45.90
13596;DHT22;6868;52.544;13.416;2023-03-01T12:03:02;7.80;42.70
13596;DHT22;6868;52.544;13.416;2023-03-01T12:05:42;7.80;41.20
13596;DHT22;6868;52.544;13.416;2023-03-01T12:08:15;7.90;37.00
13596;DHT22;6868;52.544;13.416;2023-03-01T12:10:43;7.90;36.50
13596;DHT22;6868;52.544;13.416;2023-03-01T12:13:19;8.00;36.70
13596;DHT22;6868;52.544;13.416;2023-03-01T12:21:05;8.10;32.90
13596;DHT22;6868;52.544;13.416;2023-03-01T12:23:43;7.80;32.90
13596;DHT22;6868;52.544;13.416;2023-03-01T12:26:14;8.00;32.30
13596;DHT22;6868;52.544;13.416;2023-03-01T12:28:55;7.90;32.60
13596;DHT22;6868;52.544;13.416;2023-03-01T12:31:38;7.80;31.90
13596;DHT22;6868;52.544;13.416;2023-03-01T12:34:09;7.90;32.10
13596;DHT22;6868;52.544;13.416;2023-03-01T12:36:50;7.90;31.20
13596;DHT22;6868;52.544;13.416;2023-03-01T12:39:23;7.90;30.70
13596;DHT22;6868;52.544;13.416;2023-03-01T12:41:55;8.00;31.40
13596;DHT22;6868;52.544;13.416;2023-03-01T12:44:31;8.10;30.90
13596;DHT22;6868;52.544;13.416;2023-03-01T12:47:07;8.00;28.60
13596;DHT22;6868;52.544;13.416;2023-03-01T12:49:38;8.10;28.80
13596;DHT22;6868;52.544;13.416;2023-03-01T12:52:11;8.30;28.50
13596;DHT22;6868;52.544;13.416;2023-03-01T12:54:38;8.40;28.10
13596;DHT22;6868;52.544;13.416;2023-03-01T12:57:07;8.40;26.70
13596;DHT22;6868;52.544;13.416;2023-03-01T12:59:38;8.40;26.10
13596;DHT22;6868;52.544;13.416;2023-03-01T13:02:09;8.50;25.70
13596;DHT22;6868;52.544;13.416;2023-03-01T13:04:42;8.60;24.90
13596;DHT22;6868;52.544;13.416;2023-03-01T13:07:15;8.60;24.60
13596;DHT22;6868;52.544;13.416;2023-03-01T13:09:44;8.60;24.30
13596;DHT22;6868;52.544;13.416;2023-03-01T13:15:00;8.50;21.60
13596;DHT22;6868;52.544;13.416;2023-03-01T13:17:30;8.50;22.90
13596;DHT22;6868;52.544;13.416;2023-03-01T13:19:57;8.50;23.60
13596;DHT22;6868;52.544;13.416;2023-03-01T13:22:30;8.30;23.80
13596;DHT22;6868;52.544;13.416;2023-03-01T13:25:02;8.30;24.00
13596;DHT22;6868;52.544;13.416;2023-03-01T13:27:29;8.50;23.80
13596;DHT22;6868;52.544;13.416;2023-03-01T13:29:57;8.50;23.80
13596;DHT22;6868;52.544;13.416;2023-03-01T13:32:31;8.50;23.80
13596;DHT22;6868;52.544;13.416;2023-03-01T13:34:59;8.30;23.70
13596;DHT22;6868;52.544;13.416;2023-03-01T13:37:37;8.10;24.90
13596;DHT22;6868;52.544;13.416;2023-03-01T13:45:44;8.30;23.30
13596;DHT22;6868;52.544;13.416;2023-03-01T13:48:15;8.50;23.20
13596;DHT22;6868;52.544;13.416;2023-03-01T13:50:45;8.60;23.20
13596;DHT22;6868;52.544;13.416;2023-03-01T13:53:16;8.30;23.50
13596;DHT22;6868;52.544;13.416;2023-03-01T13:55:44;8.30;24.30
13596;DHT22;6868;52.544;13.416;2023-03-01T13:58:16;8.30;24.50
13596;DHT22;6868;52.544;13.416;2023-03-01T14:00:43;8.30;24.90
13596;DHT22;6868;52.544;13.416;2023-03-01T14:03:11;8.20;25.80
13596;DHT22;6868;52.544;13.416;2023-03-01T14:05:39;8.30;26.50
13596;DHT22;6868;52.544;13.416;2023-03-01T14:08:19;8.40;27.00
13596;DHT22;6868;52.544;13.416;2023-03-01T14:10:49;8.50;27.40
13596;DHT22;6868;52.544;13.416;2023-03-01T14:13:23;8.70;27.00
13596;DHT22;6868;52.544;13.416;2023-03-01T14:15:59;8.70;26.90
13596;DHT22;6868;52.544;13.416;2023-03-01T14:18:32;8.80;27.20
13596;DHT22;6868;52.544;13.416;2023-03-01T14:21:01;8.80;27.80
13596;DHT22;6868;52.544;13.416;2023-03-01T14:23:34;9.10;28.70
13596;DHT22;6868;52.544;13.416;2023-03-01T14:26:05;8.80;29.50
13596;DHT22;6868;52.544;13.416;2023-03-01T14:28:32;8.60;30.30
13596;DHT22;6868;52.544;13.416;2023-03-01T14:31:02;8.70;31.10
13596;DHT22;6868;52.544;13.416;2023-03-01T14:33:30;8.60;31.90
13596;DHT22;6868;52.544;13.416;2023-03-01T14:35:59;8.50;33.20
13596;DHT22;6868;52.544;13.416;2023-03-01T14:38:30;8.60;34.20
13596;DHT22;6868;52.544;13.416;2023-03-01T14:40:59;8.50;34.80
13596;DHT22;6868;52.544;13.416;2023-03-01T14:43:27;8.50;35.00
13596;DHT22;6868;52.544;13.416;2023-03-01T14:45:55;8.40;35.40
13596;DHT22;6868;52.544;13.416;2023-03-01T14:48:22;8.40;35.70
13596;DHT22;6868;52.544;13.416;2023-03-01T14:50:49;8.40;35.70
13596;DHT22;6868;52.544;13.416;2023-03-01T14:53:19;8.30;36.30
13596;DHT22;6868;52.544;13.416;2023-03-01T14:55:47;8.40;37.20
13596;DHT22;6868;52.544;13.416;2023-03-01T14:58:18;8.40;37.10
13596;DHT22;6868;52.544;13.416;2023-03-01T15:00:46;8.40;36.90
13596;DHT22;6868;52.544;13.416;2023-03-01T15:03:17;8.40;37.40
13596;DHT22;6868;52.544;13.416;2023-03-01T15:05:46;8.40;37.90
13596;DHT22;6868;52.544;13.416;2023-03-01T15:08:16;8.60;38.80
13596;DHT22;6868;52.544;13.416;2023-03-01T15:10:54;8.60;38.20
13596;DHT22;6868;52.544;13.416;2023-03-01T15:13:23;8.70;37.40
13596;DHT22;6868;52.544;13.416;2023-03-01T15:15:50;8.50;37.00
13596;DHT22;6868;52.544;13.416;2023-03-01T15:18:18;8.50;38.10
13596;DHT22;6868;52.544;13.416;2023-03-01T15:20:46;8.50;37.80
13596;DHT22;6868;52.544;13.416;2023-03-01T15:25:58;8.30;38.30
13596;DHT22;6868;52.544;13.416;2023-03-01T15:28:27;8.40;38.30
13596;DHT22;6868;52.544;13.416;2023-03-01T15:30:55;8.40;38.40
13596;DHT22;6868;52.544;13.416;2023-03-01T15:33:31;8.40;38.70
13596;DHT22;6868;52.544;13.416;2023-03-01T15:36:00;8.20;38.20
13596;DHT22;6868;52.544;13.416;2023-03-01T15:38:28;8.20;38.30
13596;DHT22;6868;52.544;13.416;2023-03-01T15:40:56;8.10;38.90
13596;DHT22;6868;52.544;13.416;2023-03-01T15:43:40;8.10;39.30
13596;DHT22;6868;52.544;13.416;2023-03-01T15:46:23;8.30;39.50
13596;DHT22;6868;52.544;13.416;2023-03-01T15:48:52;8.30;39.30
13596;DHT22;6868;52.544;13.416;2023-03-01T15:51:22;8.30;40.30
13596;DHT22;6868;52.544;13.416;2023-03-01T15:53:50;8.30;39.30
13596;DHT22;6868;52.544;13.416;2023-03-01T15:56:17;8.20;40.20
13596;DHT22;6868;52.544;13.416;2023-03-01T15:58:45;8.00;40.70
13596;DHT22;6868;52.544;13.416;2023-03-01T16:01:12;8.00;41.40
13596;DHT22;6868;52.544;13.416;2023-03-01T16:03:40;7.90;42.10
13596;DHT22;6868;52.544;13.416;2023-03-01T16:06:08;7.80;42.90
13596;DHT22;6868;52.544;13.416;2023-03-01T16:08:35;7.80;43.60
13596;DHT22;6868;52.544;13.416;2023-03-01T16:11:02;7.80;44.70
13596;DHT22;6868;52.544;13.416;2023-03-01T16:13:31;7.70;45.00
13596;DHT22;6868;52.544;13.416;2023-03-01T16:15:59;7.60;45.40
13596;DHT22;6868;52.544;13.416;2023-03-01T16:18:26;7.60;45.50
13596;DHT22;6868;52.544;13.416;2023-03-01T16:20:53;7.60;46.80
13596;DHT22;6868;52.544;13.416;2023-03-01T16:23:20;7.50;48.20
13596;DHT22;6868;52.544;13.416;2023-03-01T16:25:50;7.40;49.40
13596;DHT22;6868;52.544;13.416;2023-03-01T16:28:17;7.40;50.20
13596;DHT22;6868;52.544;13.416;2023-03-01T16:30:45;7.30;50.90
13596;DHT22;6868;52.544;13.416;2023-03-01T16:33:16;7.20;51.90
13596;DHT22;6868;52.544;13.416;2023-03-01T16:35:44;7.10;53.00
13596;DHT22;6868;52.544;13.416;2023-03-01T16:38:10;7.10;54.50
13596;DHT22;6868;52.544;13.416;2023-03-01T16:40:38;7.10;56.40
13596;DHT22;6868;52.544;13.416;2023-03-01T16:43:04;7.00;58.10
13596;DHT22;6868;52.544;13.416;2023-03-01T16:45:34;7.00;59.60
13596;DHT22;6868;52.544;13.416;2023-03-01T16:48:01;7.00;61.40
13596;DHT22;6868;52.544;13.416;2023-03-01T16:50:29;6.80;63.80
13596;DHT22;6868;52.544;13.416;2023-03-01T16:52:56;6.70;66.00
13596;DHT22;6868;52.544;13.416;2023-03-01T16:55:23;6.70;70.10
13596;DHT22;6868;52.544;13.416;2023-03-01T16:57:50;6.60;72.90
13596;DHT22;6868;52.544;13.416;2023-03-01T17:00:17;6.50;75.60
13596;DHT22;6868;52.544;13.416;2023-03-01T17:02:55;6.40;77.90
13596;DHT22;6868;52.544;13.416;2023-03-01T17:05:22;6.40;80.90
13596;DHT22;6868;52.544;13.416;2023-03-01T17:07:51;6.40;83.10
13596;DHT22;6868;52.544;13.416;2023-03-01T17:10:20;6.30;86.70
13596;DHT22;6868;52.544;13.416;2023-03-01T17:12:48;6.30;88.40
13596;DHT22;6868;52.544;13.416;2023-03-01T17:15:15;6.30;90.80
13596;DHT22;6868;52.544;13.416;2023-03-01T17:17:42;6.20;91.70
13596;DHT22;6868;52.544;13.416;2023-03-01T17:20:09;6.20;92.90
13596;DHT22;6868;52.544;13.416;2023-03-01T17:22:38;6.20;93.70
13596;DHT22;6868;52.544;13.416;2023-03-01T17:25:08;6.20;94.50
13596;DHT22;6868;52.544;13.416;2023-03-01T17:27:35;6.20;96.20
13596;DHT22;6868;52.544;13.416;2023-03-01T17:30:03;6.20;97.40
13596;DHT22;6868;52.544;13.416;2023-03-01T17:32:30;6.20;98.10
13596;DHT22;6868;52.544;13.416;2023-03-01T17:34:57;6.10;99.10
13596;DHT22;6868;52.544;13.416;2023-03-01T17:37:24;6.10;99.90
13596;DHT22;6868;52.544;13.416;2023-03-01T17:39:51;6.00;99.90
13596;DHT22;6868;52.544;13.416;2023-03-01T17:42:19;5.90;99.90
13596;DHT22;6868;52.544;13.416;2023-03-01T17:44:46;6.00;99.90
13596;DHT22;6868;52.544;13.416;2023-03-01T17:47:13;5.90;99.90
13596;DHT22;6868;52.544;13.416;2023-03-01T17:49:40;5.90;99.90
13596;DHT22;6868;52.544;13.416;2023-03-01T17:52:07;5.90;99.90
13596;DHT22;6868;52.544;13.416;2023-03-01T17:54:34;5.90;99.90
13596;DHT22;6868;52.544;13.416;2023-03-01T17:57:01;5.90;99.90
13596;DHT22;6868;52.544;13.416;2023-03-01T17:59:29;5.80;99.90
13596;DHT22;6868;52.544;13.416;2023-03-01T18:01:58;5.80;99.90
13596;DHT22;6868;52.544;13.416;2023-03-01T18:04:25;5.70;99.90
13596;DHT22;6868;52.544;13.416;2023-03-01T18:06:53;5.60;99.90
13596;DHT22;6868;52.544;13.416;2023-03-01T18:09:20;5.60;99.90
13596;DHT22;6868;52.544;13.416;2023-03-01T18:11:47;5.60;99.90
13596;DHT22;6868;52.544;13.416;2023-03-01T18:14:14;5.60;99.90
13596;DHT22;6868;52.544;13.416;2023-03-01T18:16:42;5.60;99.90
13596;DHT22;6868;52.544;13.416;2023-03-01T18:19:09;5.60;99.90
13596;DHT22;6868;52.544;13.416;2023-03-01T18:21:36;5.40;99.90
13596;DHT22;6868;52.544;13.416;2023-03-01T18:24:03;5.40;99.90
13596;DHT22;6868;52.544;13.416;2023-03-01T18:26:30;5.30;99.90
13596;DHT22;6868;52.544;13.416;2023-03-01T18:28:57;5.30;99.90
13596;DHT22;6868;52.544;13.416;2023-03-01T18:31:25;5.30;99.90
13596;DHT22;6868;52.544;13.416;2023-03-01T18:33:54;5.30;99.90
13596;DHT22;6868;52.544;13.416;2023-03-01T18:36:21;5.20;99.90
13596;DHT22;6868;52.544;13.416;2023-03-01T18:38:48;5.20;99.90
13596;DHT22;6868;52.544;13.416;2023-03-01T18:41:17;5.20;99.90
13596;DHT22;6868;52.544;13.416;2023-03-01T18:43:44;5.20;99.90
13596;DHT22;6868;52.544;13.416;2023-03-01T18:46:11;5.20;99.90
13596;DHT22;6868;52.544;13.416;2023-03-01T18:48:38;5.20;99.90
13596;DHT22;6868;52.544;13.416;2023-03-01T18:51:10;5.20;99.90
13596;DHT22;6868;52.544;13.416;2023-03-01T18:53:38;5.30;99.90
13596;DHT22;6868;52.544;13.416;2023-03-01T18:56:05;5.20;99.90
13596;DHT22;6868;52.544;13.416;2023-03-01T18:58:32;5.20;99.90
13596;DHT22;6868;52.544;13.416;2023-03-01T19:00:59;5.10;99.90
13596;DHT22;6868;52.544;13.416;2023-03-01T19:03:28;5.10;99.90
13596;DHT22;6868;52.544;13.416;2023-03-01T19:05:56;5.10;99.90
13596;DHT22;6868;52.544;13.416;2023-03-01T19:08:24;5.00;99.90
13596;DHT22;6868;52.544;13.416;2023-03-01T19:10:55;5.00;99.90
13596;DHT22;6868;52.544;13.416;2023-03-01T19:13:22;4.90;99.90
13596;DHT22;6868;52.544;13.416;2023-03-01T19:15:49;4.90;99.90
13596;DHT22;6868;52.544;13.416;2023-03-01T19:18:16;4.90;99.90
13596;DHT22;6868;52.544;13.416;2023-03-01T19:20:43;4.90;99.90
13596;DHT22;6868;52.544;13.416;2023-03-01T19:23:12;4.80;99.90
13596;DHT22;6868;52.544;13.416;2023-03-01T19:25:50;4.80;99.90
13596;DHT22;6868;52.544;13.416;2023-03-01T19:28:17;4.80;99.90
13596;DHT22;6868;52.544;13.416;2023-03-01T19:30:44;4.80;99.90
13596;DHT22;6868;52.544;13.416;2023-03-01T19:33:11;4.70;99.90
13596;DHT22;6868;52.544;13.416;2023-03-01T19:35:37;4.70;99.90
13596;DHT22;6868;52.544;13.416;2023-03-01T19:38:04;4.70;99.90
13596;DHT22;6868;52.544;13.416;2023-03-01T19:40:32;4.60;99.90
13596;DHT22;6868;52.544;13.416;2023-03-01T19:43:00;4.60;99.90
13596;DHT22;6868;52.544;13.416;2023-03-01T19:45:27;4.90;99.90
13596;DHT22;6868;52.544;13.416;2023-03-01T19:47:53;4.60;99.90
13596;DHT22;6868;52.544;13.416;2023-03-01T19:50:21;4.60;99.90
13596;DHT22;6868;52.544;13.416;2023-03-01T19:52:48;4.60;99.90
13596;DHT22;6868;52.544;13.416;2023-03-01T19:55:17;4.50;99.90
13596;DHT22;6868;52.544;13.416;2023-03-01T19:57:43;4.50;99.90
13596;DHT22;6868;52.544;13.416;2023-03-01T20:00:12;4.50;99.90
13596;DHT22;6868;52.544;13.416;2023-03-01T20:02:39;4.40;99.90
13596;DHT22;6868;52.544;13.416;2023-03-01T20:05:06;4.40;99.90
13596;DHT22;6868;52.544;13.416;2023-03-01T20:07:33;4.30;99.90
13596;DHT22;6868;52.544;13.416;2023-03-01T20:10:00;4.20;99.90
13596;DHT22;6868;52.544;13.416;2023-03-01T20:12:29;4.20;99.90
13596;DHT22;6868;52.544;13.416;2023-03-01T20:14:57;4.20;99.90
13596;DHT22;6868;52.544;13.416;2023-03-01T20:17:26;4.20;99.90
13596;DHT22;6868;52.544;13.416;2023-03-01T20:19:53;4.20;99.90
13596;DHT22;6868;52.544;13.416;2023-03-01T20:22:22;4.20;99.90
13596;DHT22;6868;52.544;13.416;2023-03-01T20:24:49;4.10;99.90
13596;DHT22;6868;52.544;13.416;2023-03-01T20:27:15;4.10;99.90
13596;DHT22;6868;52.544;13.416;2023-03-01T20:29:42;4.10;99.90
13596;DHT22;6868;52.544;13.416;2023-03-01T20:32:10;4.10;99.90
13596;DHT22;6868;52.544;13.416;2023-03-01T20:34:39;4.40;99.90
13596;DHT22;6868;52.544;13.416;2023-03-01T20:37:06;4.20;99.90
13596;DHT22;6868;52.544;13.416;2023-03-01T20:39:33;3.90;99.90
13596;DHT22;6868;52.544;13.416;2023-03-01T20:42:00;3.90;99.90
13596;DHT22;6868;52.544;13.416;2023-03-01T20:44:27;3.90;99.90
13596;DHT22;6868;52.544;13.416;2023-03-01T20:46:54;3.80;99.90
13596;DHT22;6868;52.544;13.416;2023-03-01T20:49:20;3.80;99.90
13596;DHT22;6868;52.544;13.416;2023-03-01T20:51:49;3.80;99.90
13596;DHT22;6868;52.544;13.416;2023-03-01T20:54:16;3.80;99.90
13596;DHT22;6868;52.544;13.416;2023-03-01T20:56:43;3.70;99.90
13596;DHT22;6868;52.544;13.416;2023-03-01T20:59:10;3.90;99.90
13596;DHT22;6868;52.544;13.416;2023-03-01T21:01:37;3.70;99.90
13596;DHT22;6868;52.544;13.416;2023-03-01T21:04:04;3.70;99.90
13596;DHT22;6868;52.544;13.416;2023-03-01T21:06:31;3.90;99.90
13596;DHT22;6868;52.544;13.416;2023-03-01T21:09:00;3.70;99.90
13596;DHT22;6868;52.544;13.416;2023-03-01T21:11:27;3.70;99.90
13596;DHT22;6868;52.544;13.416;2023-03-01T21:13:54;3.80;99.90
13596;DHT22;6868;52.544;13.416;2023-03-01T21:16:24;3.60;99.90
13596;DHT22;6868;52.544;13.416;2023-03-01T21:18:51;3.60;99.90
13596;DHT22;6868;52.544;13.416;2023-03-01T21:21:20;3.60;99.90
13596;DHT22;6868;52.544;13.416;2023-03-01T21:23:49;3.60;99.90
13596;DHT22;6868;52.544;13.416;2023-03-01T21:26:18;3.60;99.90
13596;DHT22;6868;52.544;13.416;2023-03-01T21:28:46;3.60;99.90
13596;DHT22;6868;52.544;13.416;2023-03-01T21:31:15;3.10;99.90
13596;DHT22;6868;52.544;13.416;2023-03-01T21:33:44;3.50;99.90
13596;DHT22;6868;52.544;13.416;2023-03-01T21:36:11;3.70;99.90
13596;DHT22;6868;52.544;13.416;2023-03-01T21:38:43;3.50;99.90
13596;DHT22;6868;52.544;13.416;2023-03-01T21:41:11;3.40;99.90
13596;DHT22;6868;52.544;13.416;2023-03-01T21:43:40;3.40;99.90
13596;DHT22;6868;52.544;13.416;2023-03-01T21:46:10;3.40;99.90
13596;DHT22;6868;52.544;13.416;2023-03-01T21:48:40;3.40;99.90
13596;DHT22;6868;52.544;13.416;2023-03-01T21:51:09;3.30;99.90
13596;DHT22;6868;52.544;13.416;2023-03-01T21:53:36;3.30;99.90
13596;DHT22;6868;52.544;13.416;2023-03-01T21:56:04;3.30;99.90
13596;DHT22;6868;52.544;13.416;2023-03-01T21:58:31;3.20;99.90
13596;DHT22;6868;52.544;13.416;2023-03-01T22:01:06;3.20;99.90
13596;DHT22;6868;52.544;13.416;2023-03-01T22:03:34;3.20;99.90
13596;DHT22;6868;52.544;13.416;2023-03-01T22:06:09;3.20;99.90
13596;DHT22;6868;52.544;13.416;2023-03-01T22:08:37;3.40;99.90
13596;DHT22;6868;52.544;13.416;2023-03-01T22:11:04;2.70;99.90
13596;DHT22;6868;52.544;13.416;2023-03-01T22:13:31;3.20;99.90
13596;DHT22;6868;52.544;13.416;2023-03-01T22:38:08;3.10;99.90
13596;DHT22;6868;52.544;13.416;2023-03-01T22:40:35;3.00;99.90
13596;DHT22;6868;52.544;13.416;2023-03-01T22:43:02;2.90;99.90
13596;DHT22;6868;52.544;13.416;2023-03-01T22:45:29;2.90;99.90
13596;DHT22;6868;52.544;13.416;2023-03-01T22:47:56;2.80;99.90
13596;DHT22;6868;52.544;13.416;2023-03-01T22:50:24;2.80;99.90
13596;DHT22;6868;52.544;13.416;2023-03-01T22:52:51;2.80;99.90
13596;DHT22;6868;52.544;13.416;2023-03-01T22:55:19;2.80;99.90
13596;DHT22;6868;52.544;13.416;2023-03-01T22:57:48;2.80;99.90
13596;DHT22;6868;52.544;13.416;2023-03-01T23:00:15;2.70;99.90
13596;DHT22;6868;52.544;13.416;2023-03-01T23:02:43;2.70;99.90
13596;DHT22;6868;52.544;13.416;2023-03-01T23:05:10;2.70;99.90
13596;DHT22;6868;52.544;13.416;2023-03-01T23:07:38;2.70;99.90
13596;DHT22;6868;52.544;13.416;2023-03-01T23:10:06;2.70;99.90
13596;DHT22;6868;52.544;13.416;2023-03-01T23:12:34;2.70;99.90
13596;DHT22;6868;52.544;13.416;2023-03-01T23:15:04;2.70;99.90
13596;DHT22;6868;52.544;13.416;2023-03-01T23:17:31;2.60;99.90
13596;DHT22;6868;52.544;13.416;2023-03-01T23:19:58;2.60;99.90
13596;DHT22;6868;52.544;13.416;2023-03-01T23:22:25;2.60;99.90
13596;DHT22;6868;52.544;13.416;2023-03-01T23:24:57;2.60;99.90
13596;DHT22;6868;52.544;13.416;2023-03-01T23:27:25;2.50;99.90
13596;DHT22;6868;52.544;13.416;2023-03-01T23:29:56;2.50;99.90
13596;DHT22;6868;52.544;13.416;2023-03-01T23:32:24;2.50;99.90
13596;DHT22;6868;52.544;13.416;2023-03-01T23:35:02;2.50;99.90
13596;DHT22;6868;52.544;13.416;2023-03-01T23:37:30;2.50;99.90
13596;DHT22;6868;52.544;13.416;2023-03-01T23:39:57;2.50;99.90
13596;DHT22;6868;52.544;13.416;2023-03-01T23:42:24;2.40;99.90
13596;DHT22;6868;52.544;13.416;2023-03-01T23:44:51;2.40;99.90
13596;DHT22;6868;52.544;13.416;2023-03-01T23:47:19;2.30;99.90
13596;DHT22;6868;52.544;13.416;2023-03-01T23:52:14;2.30;99.90
13596;DHT22;6868;52.544;13.416;2023-03-01T23:54:43;2.30;99.90
13596;DHT22;6868;52.544;13.416;2023-03-01T23:57:11;2.20;99.90
13596;DHT22;6868;52.544;13.416;2023-03-01T23:59:40;2.20;99.90
